CMA CGM St. Laurent — 2IOA3 — position and weather

sailwx.info

Track history (hours):
 
Tides and Currents Weather Stations Pressure Air Temp Water Temp Dewpoint Dewpoint Depression Visibility Wind Speed Wind Dir Waves Ship Positions

CMA CGM St. Laurent

Last reported at 2018-Feb-18 17:53 UTC. Time now 2018-Feb-19 02:24 UTC.
Position N 36°40' W 026°20'.

Length 190 m; draft 8.7 m.

Type: Ship. MMSI: 235111365.

Date/timePositionNaut miles runAvg speedWind from/ knotsBaromVisibWave heightAir tempDewpointWater temp
2018-Feb-18 17:53N 36°40' W 026°20'718.7
2018-Feb-18 17:30N 36°44' W 026°14'1019.0
2018-Feb-18 17:01N 36°50' W 026°04'1019.3
2018-Feb-18 16:30N 36°56' W 025°55'918.8
2018-Feb-18 16:01N 37°02' W 025°45'1019.1
2018-Feb-18 15:31N 37°08' W 025°36'918.6
2018-Feb-18 15:01N 37°13' W 025°27'1019.0
2018-Feb-18 14:30N 37°19' W 025°18'919.0
2018-Feb-18 14:01N 37°26' W 025°09'918.9
2018-Feb-18 13:31N 37°32' W 025°00'1019.0
2018-Feb-18 13:00N 37°39' W 024°52'1019.0
2018-Feb-18 12:30N 37°46' W 024°43'919.0
2018-Feb-18 12:01N 37°53' W 024°35'1019.3
2018-Feb-18 11:30N 37°60' W 024°26'1019.3
2018-Feb-18 11:01N 38°06' W 024°18'1019.2
2018-Feb-18 10:30N 38°13' W 024°09'1019.3
2018-Feb-18 10:00N 38°20' W 024°00'  
2018-Feb-15 20:48N 49°45' W 004°09'1411.6
2018-Feb-15 19:35N 49°50' W 003°49'111.4
2018-Feb-15 19:30N 49°50' W 003°47'611.2
2018-Feb-15 18:57N 49°52' W 003°38'510.9
2018-Feb-15 18:30N 49°53' W 003°31'710.8
2018-Feb-15 17:51N 49°55' W 003°20'410.9
2018-Feb-15 17:31N 49°56' W 003°14'510.9
2018-Feb-15 17:00N 49°58' W 003°06'510.9
2018-Feb-15 16:31N 49°58' W 002°58'611.3
2018-Feb-15 16:00N 49°60' W 002°49'611.5
2018-Feb-15 15:31N 50°01' W 002°41'612.4
2018-Feb-15 15:00N 50°02' W 002°31'713.3
2018-Feb-15 14:30N 50°04' W 002°21'912.7
2018-Feb-15 13:48N 50°04' W 002°07'412.6
2018-Feb-15 13:31N 50°03' W 002°02'713.2
2018-Feb-15 13:00N 50°01' W 001°52'713.9
2018-Feb-15 12:30N 49°58' W 001°42'713.9
2018-Feb-15 12:00N 49°55' W 001°33'713.8
2018-Feb-15 11:30N 49°53' W 001°22'713.1
2018-Feb-15 11:00N 49°50' W 001°13'612.2
2018-Feb-15 10:30N 49°48' W 001°04'612.0
2018-Feb-15 10:00N 49°46' W 000°56'612.0
2018-Feb-15 09:30N 49°44' W 000°47'612.4
2018-Feb-15 09:00N 49°42' W 000°38'611.9
2018-Feb-15 08:30N 49°40' W 000°29'612.4
2018-Feb-15 08:00N 49°37' W 000°21'510.1
2018-Feb-15 07:30N 49°35' W 000°13'0 0.6
2018-Feb-15 06:58N 49°35' W 000°13'0 0.0
2018-Feb-15 06:25N 49°35' W 000°13'0 0.0
2018-Feb-15 05:58N 49°35' W 000°13'0 0.1
2018-Feb-15 05:25N 49°35' W 000°13'0 0.0
2018-Feb-15 04:58N 49°35' W 000°13'0 0.1
2018-Feb-15 04:28N 49°35' W 000°13'0 0.1
2018-Feb-15 03:58N 49°35' W 000°13'0 0.1
2018-Feb-15 03:28N 49°35' W 000°13'0 0.0
2018-Feb-15 02:58N 49°35' W 000°13'0 0.0
2018-Feb-15 02:28N 49°35' W 000°13'0 0.1
2018-Feb-15 01:55N 49°35' W 000°13'0 0.1
2018-Feb-15 01:25N 49°35' W 000°13'0 0.0
2018-Feb-15 00:58N 49°35' W 000°13'0 0.0
2018-Feb-15 00:28N 49°35' W 000°13'0 0.1
2018-Feb-14 23:58N 49°35' W 000°13'0 0.0
2018-Feb-14 23:28N 49°35' W 000°13'0 0.0
2018-Feb-14 22:58N 49°35' W 000°13'0 0.0
2018-Feb-14 22:28N 49°35' W 000°13'0 0.0
2018-Feb-14 21:58N 49°35' W 000°13'0 0.0
2018-Feb-14 21:28N 49°35' W 000°13'0 0.0
2018-Feb-14 20:55N 49°35' W 000°13'0 0.0
2018-Feb-14 20:28N 49°35' W 000°13'0 0.0
2018-Feb-14 19:58N 49°35' W 000°13'0 0.0
2018-Feb-14 19:28N 49°35' W 000°13'0 0.1
2018-Feb-14 18:55N 49°35' W 000°13'0 0.0
2018-Feb-14 18:28N 49°35' W 000°13'0 0.0
2018-Feb-14 17:58N 49°35' W 000°13'0 0.0
2018-Feb-14 17:28N 49°35' W 000°13'0 0.1
2018-Feb-14 16:55N 49°35' W 000°13'0 0.0
2018-Feb-14 16:28N 49°35' W 000°13'0 0.0
2018-Feb-14 15:58N 49°35' W 000°13'0 0.0
2018-Feb-14 15:28N 49°35' W 000°13'0 0.0
2018-Feb-14 14:58N 49°35' W 000°13'0 0.0
2018-Feb-14 14:28N 49°35' W 000°13'0 0.0
2018-Feb-14 13:58N 49°35' W 000°13'0 0.0
2018-Feb-14 13:28N 49°35' W 000°13'0 0.0
2018-Feb-14 12:58N 49°35' W 000°13'0 0.0
2018-Feb-14 12:28N 49°35' W 000°13'0 0.1
2018-Feb-14 11:58N 49°35' W 000°13'0 0.1
2018-Feb-14 11:28N 49°35' W 000°13'0 0.0
2018-Feb-14 10:58N 49°35' W 000°13'0 0.0
2018-Feb-14 10:28N 49°35' W 000°13'0 0.0
2018-Feb-14 09:58N 49°35' W 000°13'0 0.1
2018-Feb-14 09:31N 49°35' W 000°13'3 6.0
2018-Feb-14 09:01N 49°33' W 000°09'4 8.1
2018-Feb-14 08:31N 49°32' W 000°03'510.3
2018-Feb-14 08:00N 49°30' E 000°03'4 8.5
2018-Feb-14 07:31N 49°27' E 000°09'1 1.9
2018-Feb-14 07:00N 49°27' E 000°10'0 0.0
2018-Feb-14 06:30N 49°27' E 000°10'0 0.0
2018-Feb-14 06:00N 49°27' E 000°10'0 0.0
2018-Feb-14 05:30N 49°27' E 000°10'0 0.0
2018-Feb-14 05:00N 49°27' E 000°10'0 0.0
2018-Feb-14 04:30N 49°27' E 000°10'0 0.0
2018-Feb-14 04:00N 49°27' E 000°10'0 0.0
2018-Feb-14 03:30N 49°27' E 000°10'0 0.0
2018-Feb-14 03:00N 49°27' E 000°10'0 0.0
2018-Feb-14 02:30N 49°27' E 000°10'0 0.0
2018-Feb-14 02:00N 49°27' E 000°10'0 0.0
2018-Feb-14 01:30N 49°27' E 000°10'0 0.0
2018-Feb-14 01:00N 49°27' E 000°10'0 0.0
2018-Feb-14 00:30N 49°27' E 000°10'0 0.0
2018-Feb-14 00:00N 49°27' E 000°10'0 0.0
2018-Feb-13 23:30N 49°27' E 000°10'0 0.0
2018-Feb-13 23:00N 49°27' E 000°10'0 0.0
2018-Feb-13 22:30N 49°27' E 000°10'0 0.0
2018-Feb-13 22:00N 49°27' E 000°10'0 0.0
2018-Feb-13 21:30N 49°27' E 000°10'0 0.0
2018-Feb-13 21:00N 49°27' E 000°10'0 0.0
2018-Feb-13 20:30N 49°27' E 000°10'0 0.0
2018-Feb-13 20:00N 49°27' E 000°10'0 0.0
2018-Feb-13 19:30N 49°27' E 000°10'0 0.0
2018-Feb-13 19:00N 49°27' E 000°10'0 0.0
2018-Feb-13 18:30N 49°27' E 000°10'0 0.0
2018-Feb-13 18:00N 49°27' E 000°10'0 0.0
2018-Feb-13 17:30N 49°27' E 000°10'0 0.0
2018-Feb-13 17:00N 49°27' E 000°10'0 0.0
2018-Feb-13 16:30N 49°27' E 000°10'0 0.0
2018-Feb-13 16:00N 49°27' E 000°10'0 0.0
2018-Feb-13 15:30N 49°27' E 000°10'0 0.0
2018-Feb-13 15:00N 49°27' E 000°10'0 0.0
2018-Feb-13 14:30N 49°27' E 000°10'0 0.0
2018-Feb-13 14:00N 49°27' E 000°10'0 0.0
2018-Feb-13 13:30N 49°27' E 000°10'0 0.0
2018-Feb-13 13:00N 49°27' E 000°10'0 0.0
2018-Feb-13 12:30N 49°27' E 000°10'0 0.0
2018-Feb-13 12:00N 49°27' E 000°10'0 0.0
2018-Feb-13 11:30N 49°27' E 000°10'0 0.0
2018-Feb-13 11:00N 49°27' E 000°10'0 0.0
2018-Feb-13 10:30N 49°27' E 000°10'0 0.0
2018-Feb-13 10:00N 49°27' E 000°10'0 0.0
2018-Feb-13 09:30N 49°27' E 000°10'0 0.0
2018-Feb-13 09:00N 49°27' E 000°10'0 0.0
2018-Feb-13 08:30N 49°27' E 000°10'0 0.0
2018-Feb-13 08:00N 49°27' E 000°10'0 0.0
2018-Feb-13 07:30N 49°27' E 000°10'0 0.0
2018-Feb-13 07:00N 49°27' E 000°10'0 0.0
2018-Feb-13 06:30N 49°27' E 000°10'0 0.0
2018-Feb-13 06:00N 49°27' E 000°10'0 0.0
2018-Feb-13 05:30N 49°27' E 000°10'0 0.0
2018-Feb-13 05:00N 49°27' E 000°10'0 0.2
2018-Feb-13 04:30N 49°27' E 000°10'1 1.9
2018-Feb-13 04:00N 49°27' E 000°09'4 8.4
2018-Feb-13 03:30N 49°30' E 000°03'612.1
2018-Feb-13 03:00N 49°31' W 000°06'510.0
2018-Feb-13 02:30N 49°34' W 000°12'611.2
2018-Feb-13 02:00N 49°40' W 000°12'510.9
2018-Feb-13 01:30N 49°45' W 000°12'611.0
2018-Feb-13 01:00N 49°51' W 000°12'611.3
2018-Feb-13 00:30N 49°56' W 000°11'611.3
2018-Feb-13 00:00N 50°02' W 000°10'611.2
2018-Feb-12 23:30N 50°08' W 000°09'611.1
2018-Feb-12 23:00N 50°13' W 000°08'611.2
2018-Feb-12 22:30N 50°19' W 000°07'712.2
2018-Feb-12 21:57N 50°25' W 000°06'511.7
2018-Feb-12 21:30N 50°28' E 000°00'611.8
2018-Feb-12 21:00N 50°31' E 000°09'612.1
2018-Feb-12 20:30N 50°32' E 000°18'611.4
2018-Feb-12 20:00N 50°34' E 000°27'611.8
2018-Feb-12 19:30N 50°36' E 000°35'611.4
2018-Feb-12 19:00N 50°39' E 000°43'611.3
2018-Feb-12 18:30N 50°42' E 000°50'611.2
2018-Feb-12 17:59N 50°45' E 000°58'511.1
2018-Feb-12 17:30N 50°48' E 001°05'711.1
2018-Feb-12 16:52N 50°53' E 001°14'511.6
2018-Feb-12 16:24N 50°57' E 001°20'511.6
2018-Feb-12 16:00N 50°60' E 001°25'611.8
2018-Feb-12 15:30N 51°04' E 001°31'611.8
2018-Feb-12 15:00N 51°08' E 001°38'611.7
2018-Feb-12 14:30N 51°13' E 001°44'611.6
2018-Feb-12 14:00N 51°18' E 001°49'611.7
2018-Feb-12 13:30N 51°22' E 001°54'611.9
2018-Feb-12 13:01N 51°27' E 001°60'611.5
2018-Feb-12 12:31N 51°32' E 002°05'611.6
2018-Feb-12 12:00N 51°36' E 002°11'611.6
2018-Feb-12 11:30N 51°41' E 002°17'611.4
2018-Feb-12 10:59N 51°45' E 002°24'611.4
2018-Feb-12 10:28N 51°50' E 002°29'4410.6
2018-Feb-12 06:20N 52°04' E 003°37'411.7
2018-Feb-12 06:00N 52°04' E 003°43'611.5
2018-Feb-12 05:30N 52°03' E 003°52'2 3.7
2018-Feb-12 05:00N 52°02' E 003°55'510.0
2018-Feb-12 04:30N 51°60' E 004°02'611.9
2018-Feb-12 04:01N 51°57' E 004°11'611.2
2018-Feb-12 03:30N 51°54' E 004°18'4 8.4
2018-Feb-12 03:00N 51°54' E 004°25'1 1.4
2018-Feb-12 02:26N 51°54' E 004°26'0 0.0
2018-Feb-12 01:56N 51°54' E 004°26'0 0.0
2018-Feb-12 01:26N 51°54' E 004°26'0 0.0
2018-Feb-12 00:56N 51°54' E 004°26'0 0.0
2018-Feb-12 00:26N 51°54' E 004°26'0 0.0
2018-Feb-11 23:56N 51°54' E 004°26'0 0.0
2018-Feb-11 23:26N 51°54' E 004°26'0 0.0
2018-Feb-11 22:56N 51°54' E 004°26'0 0.0
2018-Feb-11 22:26N 51°54' E 004°26'0 0.0
2018-Feb-11 21:56N 51°54' E 004°26'0 0.0
2018-Feb-11 21:26N 51°54' E 004°26'0 0.0
2018-Feb-11 20:56N 51°54' E 004°26'0 0.0
2018-Feb-11 20:26N 51°54' E 004°26'0 0.0
2018-Feb-11 19:56N 51°54' E 004°26'0 0.0
2018-Feb-11 19:26N 51°54' E 004°26'0 0.0
2018-Feb-11 18:56N 51°54' E 004°26'0 0.0
2018-Feb-11 18:26N 51°54' E 004°26'0 0.0
2018-Feb-11 17:56N 51°54' E 004°26'0 0.0
2018-Feb-11 17:26N 51°54' E 004°26'0 0.0
2018-Feb-11 16:56N 51°54' E 004°26'0 0.0
2018-Feb-11 16:26N 51°54' E 004°26'0 0.0
2018-Feb-11 15:56N 51°54' E 004°26'0 0.0
2018-Feb-11 15:26N 51°54' E 004°26'0 0.0
2018-Feb-11 14:56N 51°54' E 004°26'0 0.0
2018-Feb-11 14:26N 51°54' E 004°26'0 0.0
2018-Feb-11 13:56N 51°54' E 004°26'0 0.0
2018-Feb-11 13:26N 51°54' E 004°26'0 0.0
2018-Feb-11 12:56N 51°54' E 004°26'0 0.0
2018-Feb-11 12:26N 51°54' E 004°26'0 0.0
2018-Feb-11 11:56N 51°54' E 004°26'0 0.0
2018-Feb-11 11:26N 51°54' E 004°26'0 0.0
2018-Feb-11 10:56N 51°54' E 004°26'0 0.0
2018-Feb-11 10:26N 51°54' E 004°26'0 0.0
2018-Feb-11 09:56N 51°54' E 004°26'0 0.0
2018-Feb-11 09:26N 51°54' E 004°26'0 0.0
2018-Feb-11 09:00N 51°54' E 004°26'0 0.9
2018-Feb-11 08:30N 51°54' E 004°26'3 5.4
2018-Feb-11 08:00N 51°54' E 004°22'4 8.4
2018-Feb-11 07:30N 51°55' E 004°15'611.2
2018-Feb-11 07:00N 51°58' E 004°08'611.5
2018-Feb-11 06:30N 51°60' E 003°59'612.6
2018-Feb-11 06:01N 51°59' E 003°49'713.7
2018-Feb-11 05:30N 51°57' E 003°38'3718.9
2018-Feb-11 03:32N 51°46' E 002°40'118.8
2018-Feb-11 03:29N 51°46' E 002°39'918.2
2018-Feb-11 02:58N 51°51' E 002°26'918.9
2018-Feb-11 02:29N 51°47' E 002°12'1019.8
2018-Feb-11 01:58N 51°40' E 002°00'919.8
2018-Feb-11 01:31N 51°35' E 001°48'1019.8
2018-Feb-11 01:00N 51°30' E 001°35'5 9.1
2018-Feb-11 00:30N 51°27' E 001°29'815.2
2018-Feb-11 00:01N 51°29' E 001°17'714.3
2018-Feb-10 23:30N 51°30' E 001°06'815.5
2018-Feb-10 23:00N 51°29' E 000°53'918.5
2018-Feb-10 22:30N 51°30' E 000°38'510.8
2018-Feb-10 22:00N 51°30' E 000°30'0 0.6
2018-Feb-10 21:30N 51°30' E 000°29'0 0.0
2018-Feb-10 21:00N 51°30' E 000°29'0 0.0
2018-Feb-10 20:30N 51°30' E 000°29'0 0.0
2018-Feb-10 11:50N 51°30' E 000°29'0 0.0
2018-Feb-10 11:28N 51°30' E 000°29'0 0.0
2018-Feb-10 11:00N 51°30' E 000°29'0 0.0
2018-Feb-10 10:30N 51°30' E 000°29'0 0.0
2018-Feb-10 10:00N 51°30' E 000°29'0 0.0
2018-Feb-10 09:30N 51°30' E 000°29'0 0.0
2018-Feb-10 09:00N 51°30' E 000°29'0 0.0
2018-Feb-10 08:31N 51°30' E 000°29'1 1.4
2018-Feb-10 08:00N 51°30' E 000°30'3 6.6
2018-Feb-10 07:30N 51°30' E 000°36'612.6
2018-Feb-10 07:00N 51°29' E 000°46'917.7
2018-Feb-10 06:30N 51°29' E 001°00'714.0
2018-Feb-10 06:00N 51°29' E 001°11'815.9
2018-Feb-10 05:30N 51°28' E 001°24'5 9.9
2018-Feb-10 05:00N 51°25' E 001°31'4 8.2
2018-Feb-10 04:30N 51°22' E 001°34'5 9.6
2018-Feb-10 04:00N 51°17' E 001°37'5 9.2
2018-Feb-10 03:31N 51°13' E 001°38'5 9.7
2018-Feb-10 03:00N 51°08' E 001°40'4 9.1
2018-Feb-10 02:30N 51°04' E 001°38'611.7
2018-Feb-10 02:01N 50°60' E 001°32'611.8
2018-Feb-10 01:30N 50°55' E 001°26'612.1
2018-Feb-10 00:59N 50°49' E 001°24'611.9
2018-Feb-10 00:30N 50°43' E 001°22'11311.9
2018-Feb-09 15:00N 50°06' W 001°25'612.2
2018-Feb-09 14:30N 50°04' W 001°34'1212.3
2018-Feb-09 13:30N 50°02' W 001°53'  
Track history (hours):
 
Tides and Currents Weather Stations Pressure Air Temp Water Temp Dewpoint Dewpoint Depression Visibility Wind Speed Wind Dir Waves Ship Positions

CMA CGM St. Laurent

Last reported at 2018-Feb-18 17:53 UTC. Time now 2018-Feb-19 02:24 UTC.
Position N 36°40' W 026°20'.

Length 190 m; draft 8.7 m.

Type: Ship. MMSI: 235111365.

Date/timePositionNaut miles runAvg speedWind from/ knotsBaromVisibWave heightAir tempDewpointWater temp
2018-Feb-18 17:53N 36°40' W 026°20'718.7
2018-Feb-18 17:30N 36°44' W 026°14'1019.0
2018-Feb-18 17:01N 36°50' W 026°04'1019.3
2018-Feb-18 16:30N 36°56' W 025°55'918.8
2018-Feb-18 16:01N 37°02' W 025°45'1019.1
2018-Feb-18 15:31N 37°08' W 025°36'918.6
2018-Feb-18 15:01N 37°13' W 025°27'1019.0
2018-Feb-18 14:30N 37°19' W 025°18'919.0
2018-Feb-18 14:01N 37°26' W 025°09'918.9
2018-Feb-18 13:31N 37°32' W 025°00'1019.0
2018-Feb-18 13:00N 37°39' W 024°52'1019.0
2018-Feb-18 12:30N 37°46' W 024°43'919.0
2018-Feb-18 12:01N 37°53' W 024°35'1019.3
2018-Feb-18 11:30N 37°60' W 024°26'1019.3
2018-Feb-18 11:01N 38°06' W 024°18'1019.2
2018-Feb-18 10:30N 38°13' W 024°09'1019.3
2018-Feb-18 10:00N 38°20' W 024°00'  
2018-Feb-15 20:48N 49°45' W 004°09'1411.6
2018-Feb-15 19:35N 49°50' W 003°49'111.4
2018-Feb-15 19:30N 49°50' W 003°47'611.2
2018-Feb-15 18:57N 49°52' W 003°38'510.9
2018-Feb-15 18:30N 49°53' W 003°31'710.8
2018-Feb-15 17:51N 49°55' W 003°20'410.9
2018-Feb-15 17:31N 49°56' W 003°14'510.9
2018-Feb-15 17:00N 49°58' W 003°06'510.9
2018-Feb-15 16:31N 49°58' W 002°58'611.3
2018-Feb-15 16:00N 49°60' W 002°49'611.5
2018-Feb-15 15:31N 50°01' W 002°41'612.4
2018-Feb-15 15:00N 50°02' W 002°31'713.3
2018-Feb-15 14:30N 50°04' W 002°21'912.7
2018-Feb-15 13:48N 50°04' W 002°07'412.6
2018-Feb-15 13:31N 50°03' W 002°02'713.2
2018-Feb-15 13:00N 50°01' W 001°52'713.9
2018-Feb-15 12:30N 49°58' W 001°42'713.9
2018-Feb-15 12:00N 49°55' W 001°33'713.8
2018-Feb-15 11:30N 49°53' W 001°22'713.1
2018-Feb-15 11:00N 49°50' W 001°13'612.2
2018-Feb-15 10:30N 49°48' W 001°04'612.0
2018-Feb-15 10:00N 49°46' W 000°56'612.0
2018-Feb-15 09:30N 49°44' W 000°47'612.4
2018-Feb-15 09:00N 49°42' W 000°38'611.9
2018-Feb-15 08:30N 49°40' W 000°29'612.4
2018-Feb-15 08:00N 49°37' W 000°21'510.1
2018-Feb-15 07:30N 49°35' W 000°13'0 0.6
2018-Feb-15 06:58N 49°35' W 000°13'0 0.0
2018-Feb-15 06:25N 49°35' W 000°13'0 0.0
2018-Feb-15 05:58N 49°35' W 000°13'0 0.1
2018-Feb-15 05:25N 49°35' W 000°13'0 0.0
2018-Feb-15 04:58N 49°35' W 000°13'0 0.1
2018-Feb-15 04:28N 49°35' W 000°13'0 0.1
2018-Feb-15 03:58N 49°35' W 000°13'0 0.1
2018-Feb-15 03:28N 49°35' W 000°13'0 0.0
2018-Feb-15 02:58N 49°35' W 000°13'0 0.0
2018-Feb-15 02:28N 49°35' W 000°13'0 0.1
2018-Feb-15 01:55N 49°35' W 000°13'0 0.1
2018-Feb-15 01:25N 49°35' W 000°13'0 0.0
2018-Feb-15 00:58N 49°35' W 000°13'0 0.0
2018-Feb-15 00:28N 49°35' W 000°13'0 0.1
2018-Feb-14 23:58N 49°35' W 000°13'0 0.0
2018-Feb-14 23:28N 49°35' W 000°13'0 0.0
2018-Feb-14 22:58N 49°35' W 000°13'0 0.0
2018-Feb-14 22:28N 49°35' W 000°13'0 0.0
2018-Feb-14 21:58N 49°35' W 000°13'0 0.0
2018-Feb-14 21:28N 49°35' W 000°13'0 0.0
2018-Feb-14 20:55N 49°35' W 000°13'0 0.0
2018-Feb-14 20:28N 49°35' W 000°13'0 0.0
2018-Feb-14 19:58N 49°35' W 000°13'0 0.0
2018-Feb-14 19:28N 49°35' W 000°13'0 0.1
2018-Feb-14 18:55N 49°35' W 000°13'0 0.0
2018-Feb-14 18:28N 49°35' W 000°13'0 0.0
2018-Feb-14 17:58N 49°35' W 000°13'0 0.0
2018-Feb-14 17:28N 49°35' W 000°13'0 0.1
2018-Feb-14 16:55N 49°35' W 000°13'0 0.0
2018-Feb-14 16:28N 49°35' W 000°13'0 0.0
2018-Feb-14 15:58N 49°35' W 000°13'0 0.0
2018-Feb-14 15:28N 49°35' W 000°13'0 0.0
2018-Feb-14 14:58N 49°35' W 000°13'0 0.0
2018-Feb-14 14:28N 49°35' W 000°13'0 0.0
2018-Feb-14 13:58N 49°35' W 000°13'0 0.0
2018-Feb-14 13:28N 49°35' W 000°13'0 0.0
2018-Feb-14 12:58N 49°35' W 000°13'0 0.0
2018-Feb-14 12:28N 49°35' W 000°13'0 0.1
2018-Feb-14 11:58N 49°35' W 000°13'0 0.1
2018-Feb-14 11:28N 49°35' W 000°13'0 0.0
2018-Feb-14 10:58N 49°35' W 000°13'0 0.0
2018-Feb-14 10:28N 49°35' W 000°13'0 0.0
2018-Feb-14 09:58N 49°35' W 000°13'0 0.1
2018-Feb-14 09:31N 49°35' W 000°13'3 6.0
2018-Feb-14 09:01N 49°33' W 000°09'4 8.1
2018-Feb-14 08:31N 49°32' W 000°03'510.3
2018-Feb-14 08:00N 49°30' E 000°03'4 8.5
2018-Feb-14 07:31N 49°27' E 000°09'1 1.9
2018-Feb-14 07:00N 49°27' E 000°10'0 0.0
2018-Feb-14 06:30N 49°27' E 000°10'0 0.0
2018-Feb-14 06:00N 49°27' E 000°10'0 0.0
2018-Feb-14 05:30N 49°27' E 000°10'0 0.0
2018-Feb-14 05:00N 49°27' E 000°10'0 0.0
2018-Feb-14 04:30N 49°27' E 000°10'0 0.0
2018-Feb-14 04:00N 49°27' E 000°10'0 0.0
2018-Feb-14 03:30N 49°27' E 000°10'0 0.0
2018-Feb-14 03:00N 49°27' E 000°10'0 0.0
2018-Feb-14 02:30N 49°27' E 000°10'0 0.0
2018-Feb-14 02:00N 49°27' E 000°10'0 0.0
2018-Feb-14 01:30N 49°27' E 000°10'0 0.0
2018-Feb-14 01:00N 49°27' E 000°10'0 0.0
2018-Feb-14 00:30N 49°27' E 000°10'0 0.0
2018-Feb-14 00:00N 49°27' E 000°10'0 0.0
2018-Feb-13 23:30N 49°27' E 000°10'0 0.0
2018-Feb-13 23:00N 49°27' E 000°10'0 0.0
2018-Feb-13 22:30N 49°27' E 000°10'0 0.0
2018-Feb-13 22:00N 49°27' E 000°10'0 0.0
2018-Feb-13 21:30N 49°27' E 000°10'0 0.0
2018-Feb-13 21:00N 49°27' E 000°10'0 0.0
2018-Feb-13 20:30N 49°27' E 000°10'0 0.0
2018-Feb-13 20:00N 49°27' E 000°10'0 0.0
2018-Feb-13 19:30N 49°27' E 000°10'0 0.0
2018-Feb-13 19:00N 49°27' E 000°10'0 0.0
2018-Feb-13 18:30N 49°27' E 000°10'0 0.0
2018-Feb-13 18:00N 49°27' E 000°10'0 0.0
2018-Feb-13 17:30N 49°27' E 000°10'0 0.0
2018-Feb-13 17:00N 49°27' E 000°10'0 0.0
2018-Feb-13 16:30N 49°27' E 000°10'0 0.0
2018-Feb-13 16:00N 49°27' E 000°10'0 0.0
2018-Feb-13 15:30N 49°27' E 000°10'0 0.0
2018-Feb-13 15:00N 49°27' E 000°10'0 0.0
2018-Feb-13 14:30N 49°27' E 000°10'0 0.0
2018-Feb-13 14:00N 49°27' E 000°10'0 0.0
2018-Feb-13 13:30N 49°27' E 000°10'0 0.0
2018-Feb-13 13:00N 49°27' E 000°10'0 0.0
2018-Feb-13 12:30N 49°27' E 000°10'0 0.0
2018-Feb-13 12:00N 49°27' E 000°10'0 0.0
2018-Feb-13 11:30N 49°27' E 000°10'0 0.0
2018-Feb-13 11:00N 49°27' E 000°10'0 0.0
2018-Feb-13 10:30N 49°27' E 000°10'0 0.0
2018-Feb-13 10:00N 49°27' E 000°10'0 0.0
2018-Feb-13 09:30N 49°27' E 000°10'0 0.0
2018-Feb-13 09:00N 49°27' E 000°10'0 0.0
2018-Feb-13 08:30N 49°27' E 000°10'0 0.0
2018-Feb-13 08:00N 49°27' E 000°10'0 0.0
2018-Feb-13 07:30N 49°27' E 000°10'0 0.0
2018-Feb-13 07:00N 49°27' E 000°10'0 0.0
2018-Feb-13 06:30N 49°27' E 000°10'0 0.0
2018-Feb-13 06:00N 49°27' E 000°10'0 0.0
2018-Feb-13 05:30N 49°27' E 000°10'0 0.0
2018-Feb-13 05:00N 49°27' E 000°10'0 0.2
2018-Feb-13 04:30N 49°27' E 000°10'1 1.9
2018-Feb-13 04:00N 49°27' E 000°09'4 8.4
2018-Feb-13 03:30N 49°30' E 000°03'612.1
2018-Feb-13 03:00N 49°31' W 000°06'510.0
2018-Feb-13 02:30N 49°34' W 000°12'611.2
2018-Feb-13 02:00N 49°40' W 000°12'510.9
2018-Feb-13 01:30N 49°45' W 000°12'611.0
2018-Feb-13 01:00N 49°51' W 000°12'611.3
2018-Feb-13 00:30N 49°56' W 000°11'611.3
2018-Feb-13 00:00N 50°02' W 000°10'611.2
2018-Feb-12 23:30N 50°08' W 000°09'611.1
2018-Feb-12 23:00N 50°13' W 000°08'611.2
2018-Feb-12 22:30N 50°19' W 000°07'712.2
2018-Feb-12 21:57N 50°25' W 000°06'511.7
2018-Feb-12 21:30N 50°28' E 000°00'611.8
2018-Feb-12 21:00N 50°31' E 000°09'612.1
2018-Feb-12 20:30N 50°32' E 000°18'611.4
2018-Feb-12 20:00N 50°34' E 000°27'611.8
2018-Feb-12 19:30N 50°36' E 000°35'611.4
2018-Feb-12 19:00N 50°39' E 000°43'611.3
2018-Feb-12 18:30N 50°42' E 000°50'611.2
2018-Feb-12 17:59N 50°45' E 000°58'511.1
2018-Feb-12 17:30N 50°48' E 001°05'711.1
2018-Feb-12 16:52N 50°53' E 001°14'511.6
2018-Feb-12 16:24N 50°57' E 001°20'511.6
2018-Feb-12 16:00N 50°60' E 001°25'611.8
2018-Feb-12 15:30N 51°04' E 001°31'611.8
2018-Feb-12 15:00N 51°08' E 001°38'611.7
2018-Feb-12 14:30N 51°13' E 001°44'611.6
2018-Feb-12 14:00N 51°18' E 001°49'611.7
2018-Feb-12 13:30N 51°22' E 001°54'611.9
2018-Feb-12 13:01N 51°27' E 001°60'611.5
2018-Feb-12 12:31N 51°32' E 002°05'611.6
2018-Feb-12 12:00N 51°36' E 002°11'611.6
2018-Feb-12 11:30N 51°41' E 002°17'611.4
2018-Feb-12 10:59N 51°45' E 002°24'611.4
2018-Feb-12 10:28N 51°50' E 002°29'4410.6
2018-Feb-12 06:20N 52°04' E 003°37'411.7
2018-Feb-12 06:00N 52°04' E 003°43'611.5
2018-Feb-12 05:30N 52°03' E 003°52'2 3.7
2018-Feb-12 05:00N 52°02' E 003°55'510.0
2018-Feb-12 04:30N 51°60' E 004°02'611.9
2018-Feb-12 04:01N 51°57' E 004°11'611.2
2018-Feb-12 03:30N 51°54' E 004°18'4 8.4
2018-Feb-12 03:00N 51°54' E 004°25'1 1.4
2018-Feb-12 02:26N 51°54' E 004°26'0 0.0
2018-Feb-12 01:56N 51°54' E 004°26'0 0.0
2018-Feb-12 01:26N 51°54' E 004°26'0 0.0
2018-Feb-12 00:56N 51°54' E 004°26'0 0.0
2018-Feb-12 00:26N 51°54' E 004°26'0 0.0
2018-Feb-11 23:56N 51°54' E 004°26'0 0.0
2018-Feb-11 23:26N 51°54' E 004°26'0 0.0
2018-Feb-11 22:56N 51°54' E 004°26'0 0.0
2018-Feb-11 22:26N 51°54' E 004°26'0 0.0
2018-Feb-11 21:56N 51°54' E 004°26'0 0.0
2018-Feb-11 21:26N 51°54' E 004°26'0 0.0
2018-Feb-11 20:56N 51°54' E 004°26'0 0.0
2018-Feb-11 20:26N 51°54' E 004°26'0 0.0
2018-Feb-11 19:56N 51°54' E 004°26'0 0.0
2018-Feb-11 19:26N 51°54' E 004°26'0 0.0
2018-Feb-11 18:56N 51°54' E 004°26'0 0.0
2018-Feb-11 18:26N 51°54' E 004°26'0 0.0
2018-Feb-11 17:56N 51°54' E 004°26'0 0.0
2018-Feb-11 17:26N 51°54' E 004°26'0 0.0
2018-Feb-11 16:56N 51°54' E 004°26'0 0.0
2018-Feb-11 16:26N 51°54' E 004°26'0 0.0
2018-Feb-11 15:56N 51°54' E 004°26'0 0.0
2018-Feb-11 15:26N 51°54' E 004°26'0 0.0
2018-Feb-11 14:56N 51°54' E 004°26'0 0.0
2018-Feb-11 14:26N 51°54' E 004°26'0 0.0
2018-Feb-11 13:56N 51°54' E 004°26'0 0.0
2018-Feb-11 13:26N 51°54' E 004°26'0 0.0
2018-Feb-11 12:56N 51°54' E 004°26'0 0.0
2018-Feb-11 12:26N 51°54' E 004°26'0 0.0
2018-Feb-11 11:56N 51°54' E 004°26'0 0.0
2018-Feb-11 11:26N 51°54' E 004°26'0 0.0
2018-Feb-11 10:56N 51°54' E 004°26'0 0.0
2018-Feb-11 10:26N 51°54' E 004°26'0 0.0
2018-Feb-11 09:56N 51°54' E 004°26'0 0.0
2018-Feb-11 09:26N 51°54' E 004°26'0 0.0
2018-Feb-11 09:00N 51°54' E 004°26'0 0.9
2018-Feb-11 08:30N 51°54' E 004°26'3 5.4
2018-Feb-11 08:00N 51°54' E 004°22'4 8.4
2018-Feb-11 07:30N 51°55' E 004°15'611.2
2018-Feb-11 07:00N 51°58' E 004°08'611.5
2018-Feb-11 06:30N 51°60' E 003°59'612.6
2018-Feb-11 06:01N 51°59' E 003°49'713.7
2018-Feb-11 05:30N 51°57' E 003°38'3718.9
2018-Feb-11 03:32N 51°46' E 002°40'118.8
2018-Feb-11 03:29N 51°46' E 002°39'918.2
2018-Feb-11 02:58N 51°51' E 002°26'918.9
2018-Feb-11 02:29N 51°47' E 002°12'1019.8
2018-Feb-11 01:58N 51°40' E 002°00'919.8
2018-Feb-11 01:31N 51°35' E 001°48'1019.8
2018-Feb-11 01:00N 51°30' E 001°35'5 9.1
2018-Feb-11 00:30N 51°27' E 001°29'815.2
2018-Feb-11 00:01N 51°29' E 001°17'714.3
2018-Feb-10 23:30N 51°30' E 001°06'815.5
2018-Feb-10 23:00N 51°29' E 000°53'918.5
2018-Feb-10 22:30N 51°30' E 000°38'510.8
2018-Feb-10 22:00N 51°30' E 000°30'0 0.6
2018-Feb-10 21:30N 51°30' E 000°29'0 0.0
2018-Feb-10 21:00N 51°30' E 000°29'0 0.0
2018-Feb-10 20:30N 51°30' E 000°29'0 0.0
2018-Feb-10 11:50N 51°30' E 000°29'0 0.0
2018-Feb-10 11:28N 51°30' E 000°29'0 0.0
2018-Feb-10 11:00N 51°30' E 000°29'0 0.0
2018-Feb-10 10:30N 51°30' E 000°29'0 0.0
2018-Feb-10 10:00N 51°30' E 000°29'0 0.0
2018-Feb-10 09:30N 51°30' E 000°29'0 0.0
2018-Feb-10 09:00N 51°30' E 000°29'0 0.0
2018-Feb-10 08:31N 51°30' E 000°29'1 1.4
2018-Feb-10 08:00N 51°30' E 000°30'3 6.6
2018-Feb-10 07:30N 51°30' E 000°36'612.6
2018-Feb-10 07:00N 51°29' E 000°46'917.7
2018-Feb-10 06:30N 51°29' E 001°00'714.0
2018-Feb-10 06:00N 51°29' E 001°11'815.9
2018-Feb-10 05:30N 51°28' E 001°24'5 9.9
2018-Feb-10 05:00N 51°25' E 001°31'4 8.2
2018-Feb-10 04:30N 51°22' E 001°34'5 9.6
2018-Feb-10 04:00N 51°17' E 001°37'5 9.2
2018-Feb-10 03:31N 51°13' E 001°38'5 9.7
2018-Feb-10 03:00N 51°08' E 001°40'4 9.1
2018-Feb-10 02:30N 51°04' E 001°38'611.7
2018-Feb-10 02:01N 50°60' E 001°32'611.8
2018-Feb-10 01:30N 50°55' E 001°26'612.1
2018-Feb-10 00:59N 50°49' E 001°24'611.9
2018-Feb-10 00:30N 50°43' E 001°22'11311.9
2018-Feb-09 15:00N 50°06' W 001°25'612.2
2018-Feb-09 14:30N 50°04' W 001°34'1212.3
2018-Feb-09 13:30N 50°02' W 001°53'  

Dump ship's entire track history